This is the latest recevied weather packets stored in our database for station/object KI5NYZ-13. If no packets are shown the sender has not sent any weather packets the latest 10 day(s).
| Time | Temp. | Humidity | Pressure | Rain* | Wind** | Luminosity | Snow |
|---|---|---|---|---|---|---|---|
| 1778218396 | 13.89° C | 62% | 1013.9 hPa | 0 mm | - | - | - |
| 1778216595 | 15° C | 58% | 1013.3 hPa | 0 mm | - | - | - |
| 1778214794 | 16.11° C | 54% | 1013.2 hPa | 0 mm | - | - | - |
| 1778212993 | 16.67° C | 51% | 1012.9 hPa | 0 mm | - | - | - |
| 1778211193 | 17.78° C | 50% | 1012.3 hPa | 0 mm | - | - | - |
| 1778209391 | 18.33° C | 48% | 1011.7 hPa | 0 mm | - | - | - |
| 1778207591 | 19.44° C | 42% | 1010.9 hPa | 0 mm | - | - | - |
| 1778205789 | 20.56° C | 36% | 1010.1 hPa | 0 mm | - | - | - |
| 1778200387 | 24.44° C | 30% | 1008.7 hPa | 0 mm | - | - | - |
| 1778198585 | 25° C | 30% | 1008.7 hPa | 0 mm | - | - | - |
| 1778196784 | 25° C | 29% | 1008.6 hPa | 0 mm | - | - | - |
| 1778194983 | 25° C | 29% | 1008.9 hPa | 0 mm | - | - | - |
| 1778193183 | 25° C | 29% | 1009.3 hPa | 0 mm | - | - | - |
| 1778191381 | 25° C | 29% | 1009.4 hPa | 0 mm | - | - | - |
| 1778189580 | 25° C | 30% | 1009.8 hPa | 0 mm | - | - | - |
| 1778187779 | 24.44° C | 30% | 1010.6 hPa | 0 mm | - | - | - |
| 1778185979 | 23.33° C | 32% | 1011.6 hPa | 0 mm | - | - | - |
| 1778184177 | 22.78° C | 33% | 1012.4 hPa | 0 mm | - | - | - |
| 1778182377 | 22.22° C | 35% | 1013.2 hPa | 0 mm | - | - | - |
| 1778180576 | 20.56° C | 38% | 1014.1 hPa | 0 mm | - | - | - |
| 1778178774 | 18.89° C | 41% | 1015.2 hPa | 0 mm | - | - | - |
| 1778176973 | 19.44° C | 40% | 1015.7 hPa | 0 mm | - | - | - |
| 1778175173 | 17.78° C | 45% | 1017.1 hPa | 0 mm | - | - | - |
| 1778173371 | 16.67° C | 45% | 1017.9 hPa | 0 mm | - | - | - |
| 1778171571 | 16.11° C | 47% | 1018.7 hPa | 0 mm | - | - | - |
* Rain latest hour (hover to see other rain measurements)
** Current wind speed in m/s (hover to see current wind gust speed)